createdAt,value
2024-01-12T00:00:29.668Z,-3.00
2024-01-12T00:03:52.954Z,-2.99
2024-01-12T00:07:07.070Z,-3.00
2024-01-12T00:10:12.842Z,-3.00
2024-01-12T00:13:16.209Z,-2.99
2024-01-12T00:16:24.735Z,-2.97
2024-01-12T00:19:27.973Z,-2.95
2024-01-12T00:22:31.149Z,-2.94
2024-01-12T00:25:34.313Z,-2.93
2024-01-12T00:28:43.453Z,-2.92
2024-01-12T00:31:46.681Z,-2.90
2024-01-12T00:34:58.373Z,-2.89
2024-01-12T00:38:07.160Z,-2.87
2024-01-12T00:41:15.190Z,-2.87
2024-01-12T00:44:29.062Z,-2.87
2024-01-12T00:47:34.939Z,-2.87
2024-01-12T00:50:45.223Z,-2.88
2024-01-12T00:54:08.655Z,-2.89
2024-01-12T00:57:34.043Z,-2.89
2024-01-12T01:00:50.167Z,-2.89
2024-01-12T01:03:53.537Z,-2.90
2024-01-12T01:07:07.408Z,-2.89
2024-01-12T01:10:18.806Z,-2.86
2024-01-12T01:13:22.021Z,-2.82
2024-01-12T01:16:30.293Z,-2.80
2024-01-12T01:19:41.093Z,-2.78
2024-01-12T01:22:44.348Z,-2.77
2024-01-12T01:25:50.449Z,-2.76
2024-01-12T01:29:02.560Z,-2.75
2024-01-12T01:32:05.620Z,-2.76
2024-01-12T01:35:17.514Z,-2.76
2024-01-12T01:38:20.831Z,-2.76
2024-01-12T01:41:24.079Z,-2.76
2024-01-12T01:44:27.282Z,-2.77
2024-01-12T01:47:39.867Z,-2.77
2024-01-12T01:50:49.115Z,-2.77
2024-01-12T01:54:02.817Z,-2.76
2024-01-12T01:57:16.272Z,-2.74
2024-01-12T02:00:29.944Z,-2.71
2024-01-12T02:04:03.422Z,-2.65
2024-01-12T02:07:18.207Z,-2.61
2024-01-12T02:10:37.124Z,-2.61
2024-01-12T02:14:08.482Z,-2.60
2024-01-12T02:17:17.783Z,-2.62
2024-01-12T02:20:29.166Z,-2.72
2024-01-12T02:23:35.727Z,-2.81
2024-01-12T02:26:41.438Z,-2.87
2024-01-12T02:29:47.270Z,-2.88
2024-01-12T02:32:56.877Z,-2.83
2024-01-12T02:36:03.021Z,-2.82
2024-01-12T02:39:20.149Z,-2.83
2024-01-12T02:42:23.588Z,-2.83
2024-01-12T02:45:29.580Z,-2.83
2024-01-12T02:48:40.225Z,-2.83
2024-01-12T02:51:49.718Z,-2.82
2024-01-12T02:54:52.925Z,-2.81
2024-01-12T02:58:08.870Z,-2.79
2024-01-12T03:02:12.597Z,-2.79
2024-01-12T03:08:24.899Z,-2.73
2024-01-12T03:11:27.837Z,-2.69
2024-01-12T03:14:30.706Z,-2.67
2024-01-12T03:17:33.758Z,-2.65
2024-01-12T03:20:36.773Z,-2.65
2024-01-12T03:23:39.608Z,-2.65
2024-01-12T03:26:42.508Z,-2.62
2024-01-12T03:29:45.325Z,-2.61
2024-01-12T03:32:48.299Z,-2.60
2024-01-12T03:35:51.201Z,-2.60
2024-01-12T03:38:55.848Z,-2.61
2024-01-12T03:41:58.960Z,-2.63
2024-01-12T03:45:01.980Z,-2.66
2024-01-12T03:48:05.415Z,-2.73
2024-01-12T03:51:08.447Z,-2.79
2024-01-12T03:54:11.897Z,-2.84
2024-01-12T03:57:14.708Z,-2.89
2024-01-12T04:00:17.692Z,-2.92
2024-01-12T04:03:20.525Z,-2.92
2024-01-12T04:06:23.493Z,-2.90
2024-01-12T04:09:26.362Z,-2.90
2024-01-12T04:12:29.154Z,-2.83
2024-01-12T04:15:31.965Z,-2.81
2024-01-12T04:18:35.076Z,-2.79
2024-01-12T04:21:38.057Z,-2.78
2024-01-12T04:24:40.814Z,-2.78
2024-01-12T04:27:43.617Z,-2.78
2024-01-12T04:30:46.375Z,-2.77
2024-01-12T04:33:49.311Z,-2.76
2024-01-12T04:36:52.170Z,-2.75
2024-01-12T04:39:55.007Z,-2.74
2024-01-12T04:42:57.836Z,-2.73
2024-01-12T04:46:00.783Z,-2.72
2024-01-12T04:49:03.721Z,-2.71
2024-01-12T04:52:06.657Z,-2.68
2024-01-12T04:55:09.630Z,-2.67
2024-01-12T04:58:12.496Z,-2.68
2024-01-12T05:01:15.247Z,-2.67
2024-01-12T05:04:18.264Z,-2.67
2024-01-12T05:07:21.073Z,-2.66
2024-01-12T05:10:23.849Z,-2.64
2024-01-12T05:13:26.679Z,-2.64
2024-01-12T05:16:29.548Z,-2.63
2024-01-12T05:19:32.518Z,-2.62
2024-01-12T05:22:37.125Z,-2.65
2024-01-12T05:25:40.225Z,-2.70
2024-01-12T05:28:43.053Z,-2.75
2024-01-12T05:31:46.162Z,-2.79
2024-01-12T05:34:49.074Z,-2.80
2024-01-12T05:37:52.749Z,-2.80
2024-01-12T05:40:55.552Z,-2.81
2024-01-12T05:43:58.404Z,-2.83
2024-01-12T05:47:01.269Z,-2.83
2024-01-12T05:50:04.772Z,-2.81
2024-01-12T05:53:08.080Z,-2.81
2024-01-12T05:56:11.322Z,-2.83
2024-01-12T05:59:15.602Z,-2.82
2024-01-12T06:02:18.499Z,-2.80
2024-01-12T06:05:21.557Z,-2.80
2024-01-12T06:08:25.042Z,-2.82
2024-01-12T06:11:27.877Z,-2.84
2024-01-12T06:14:31.230Z,-2.80
2024-01-12T06:17:34.200Z,-2.80
2024-01-12T06:20:37.092Z,-2.82
2024-01-12T06:23:40.102Z,-2.83
2024-01-12T06:26:43.974Z,-2.83
2024-01-12T06:29:46.949Z,-2.83
2024-01-12T06:32:49.935Z,-2.82
2024-01-12T06:35:52.831Z,-2.79
2024-01-12T06:38:56.909Z,-2.76
2024-01-12T06:42:00.492Z,-2.70
2024-01-12T06:45:07.614Z,-2.66
2024-01-12T06:48:11.538Z,-2.60
2024-01-12T06:51:22.480Z,-2.55
2024-01-12T06:54:25.465Z,-2.56
2024-01-12T06:57:28.628Z,-2.56
2024-01-12T07:00:31.460Z,-2.56
2024-01-12T07:03:34.328Z,-2.57
2024-01-12T07:06:37.290Z,-2.55
2024-01-12T07:09:40.783Z,-2.56
2024-01-12T07:12:43.575Z,-2.55
2024-01-12T07:15:46.394Z,-2.49
2024-01-12T07:18:49.515Z,-2.47
2024-01-12T07:21:52.564Z,-2.43
2024-01-12T07:24:55.446Z,-2.39
2024-01-12T07:27:58.346Z,-2.37
2024-01-12T07:31:01.312Z,-2.31
2024-01-12T07:34:05.743Z,-2.23
2024-01-12T07:37:09.202Z,-2.16
2024-01-12T07:40:13.747Z,-2.08
2024-01-12T07:43:16.714Z,-2.00
2024-01-12T07:46:19.715Z,-1.92
2024-01-12T07:49:22.514Z,-1.83
2024-01-12T07:52:25.727Z,-1.79
2024-01-12T07:55:28.669Z,-1.76
2024-01-12T07:58:33.023Z,-1.76
2024-01-12T08:01:36.128Z,-1.76
2024-01-12T08:04:39.539Z,-1.76
2024-01-12T08:07:42.548Z,-1.79
2024-01-12T08:10:45.434Z,-1.79
2024-01-12T08:13:48.196Z,-1.74
2024-01-12T08:16:51.504Z,-1.64
2024-01-12T08:19:54.274Z,-1.49
2024-01-12T08:22:57.112Z,-1.36
2024-01-12T08:25:59.869Z,-1.25
2024-01-12T08:29:03.214Z,-1.13
2024-01-12T08:32:06.146Z,-1.07
2024-01-12T08:35:09.556Z,-0.97
2024-01-12T08:38:13.465Z,-0.91
2024-01-12T08:41:16.476Z,-0.87
2024-01-12T08:44:19.288Z,-0.84
2024-01-12T08:47:22.336Z,-0.81
2024-01-12T08:50:25.739Z,-0.78
2024-01-12T08:53:28.562Z,-0.78
2024-01-12T08:56:31.926Z,-0.77
2024-01-12T08:59:34.787Z,-0.80
2024-01-12T09:02:37.622Z,-0.84
2024-01-12T09:05:40.654Z,-0.88
2024-01-12T09:08:43.558Z,-0.90
2024-01-12T09:11:46.552Z,-0.94
2024-01-12T09:14:49.500Z,-1.01
2024-01-12T09:17:52.361Z,-1.02
2024-01-12T09:20:55.353Z,-1.01
2024-01-12T09:23:58.245Z,-1.00
2024-01-12T09:27:01.114Z,-1.02
2024-01-12T09:30:04.495Z,-1.09
2024-01-12T09:33:07.950Z,-1.13
2024-01-12T09:36:11.175Z,-1.09
2024-01-12T09:39:16.315Z,-1.07
2024-01-12T09:42:22.703Z,-0.90
2024-01-12T09:45:26.885Z,-0.81
2024-01-12T09:48:30.845Z,-0.71
2024-01-12T09:51:33.784Z,-0.51
2024-01-12T09:54:36.689Z,-0.25
2024-01-12T09:57:40.429Z,-0.02
2024-01-12T10:00:45.978Z,0.16
2024-01-12T10:03:50.016Z,0.41
2024-01-12T10:06:52.961Z,0.58
2024-01-12T10:09:55.837Z,0.68
2024-01-12T10:12:58.559Z,0.81
2024-01-12T10:16:02.949Z,0.93
2024-01-12T10:19:06.526Z,1.21
2024-01-12T10:22:15.655Z,1.46
2024-01-12T10:25:18.494Z,1.56
2024-01-12T10:28:21.394Z,1.68
2024-01-12T10:31:24.304Z,1.78
2024-01-12T10:34:35.026Z,1.88
2024-01-12T10:37:39.436Z,1.99
2024-01-12T10:40:44.554Z,2.07
2024-01-12T10:43:52.324Z,2.15
2024-01-12T10:47:03.201Z,2.20
2024-01-12T10:50:07.943Z,2.16
2024-01-12T10:53:10.809Z,2.00
2024-01-12T10:56:14.047Z,1.60
2024-01-12T10:59:17.665Z,1.23
2024-01-12T11:02:20.719Z,0.97
2024-01-12T11:05:26.713Z,0.78
2024-01-12T11:08:30.391Z,0.54
2024-01-12T11:11:41.737Z,0.39
2024-01-12T11:14:44.778Z,0.35
2024-01-12T11:17:47.767Z,0.35
2024-01-12T11:21:01.830Z,0.37
2024-01-12T11:24:04.907Z,0.38
2024-01-12T11:27:07.957Z,0.47
2024-01-12T11:30:16.138Z,0.64
2024-01-12T11:33:20.639Z,0.77
2024-01-12T11:36:32.540Z,0.91
2024-01-12T11:39:38.582Z,0.90
2024-01-12T11:42:44.341Z,0.85
2024-01-12T11:45:47.929Z,0.77
2024-01-12T11:48:52.865Z,0.85
2024-01-12T11:52:06.230Z,0.82
2024-01-12T11:55:10.921Z,0.78
2024-01-12T11:58:13.759Z,0.66
2024-01-12T12:01:16.710Z,0.69
2024-01-12T12:04:19.559Z,0.77
2024-01-12T12:07:28.826Z,0.82
2024-01-12T12:10:37.985Z,0.83
2024-01-12T12:13:46.841Z,0.78
2024-01-12T12:16:49.813Z,0.67
2024-01-12T12:19:53.106Z,0.53
2024-01-12T12:22:57.759Z,0.46
2024-01-12T12:26:00.950Z,0.56
2024-01-12T12:29:05.484Z,0.66
2024-01-12T12:32:15.069Z,0.81
2024-01-12T12:35:20.528Z,0.76
2024-01-12T12:38:23.776Z,0.78
2024-01-12T12:41:26.871Z,0.79
2024-01-12T12:44:29.947Z,0.75
2024-01-12T12:47:37.477Z,0.56
2024-01-12T12:50:40.373Z,0.52
2024-01-12T12:53:43.254Z,0.49
2024-01-12T12:56:47.591Z,0.40
2024-01-12T12:59:50.641Z,0.42
2024-01-12T13:02:53.568Z,0.43
2024-01-12T13:05:56.872Z,0.53
2024-01-12T13:08:59.843Z,0.45
2024-01-12T13:12:05.354Z,0.44
2024-01-12T13:15:10.212Z,0.39
2024-01-12T13:18:13.253Z,0.28
2024-01-12T13:21:16.653Z,0.18
2024-01-12T13:24:19.742Z,0.10
2024-01-12T13:27:22.904Z,-0.04
2024-01-12T13:30:25.863Z,-0.17
2024-01-12T13:33:29.066Z,-0.27
2024-01-12T13:36:32.096Z,-0.42
2024-01-12T13:39:35.329Z,-0.53
2024-01-12T13:42:39.243Z,-0.63
2024-01-12T13:45:42.118Z,-0.79
2024-01-12T13:48:48.182Z,-0.86
2024-01-12T13:51:51.186Z,-0.85
2024-01-12T13:54:54.091Z,-0.96
2024-01-12T13:57:56.916Z,-1.06
2024-01-12T14:01:00.022Z,-1.09
2024-01-12T14:04:06.292Z,-1.13
2024-01-12T14:07:09.374Z,-1.16
2024-01-12T14:10:13.182Z,-1.13
2024-01-12T14:13:18.153Z,-1.15
2024-01-12T14:16:21.024Z,-1.14
2024-01-12T14:19:24.042Z,-1.10
2024-01-12T14:22:27.941Z,-1.12
2024-01-12T14:25:30.819Z,-1.15
2024-01-12T14:28:34.394Z,-1.19
2024-01-12T14:31:37.284Z,-1.25
2024-01-12T14:34:40.439Z,-1.30
2024-01-12T14:37:43.305Z,-1.35
2024-01-12T14:40:46.277Z,-1.41
2024-01-12T14:43:49.176Z,-1.45
2024-01-12T14:46:52.111Z,-1.51
2024-01-12T14:49:55.189Z,-1.55
2024-01-12T14:52:58.272Z,-1.58
2024-01-12T14:56:01.270Z,-1.63
2024-01-12T14:59:05.505Z,-1.69
2024-01-12T15:02:08.975Z,-1.76
2024-01-12T15:05:14.508Z,-1.81
2024-01-12T15:08:19.067Z,-1.86
2024-01-12T15:11:22.160Z,-1.91
2024-01-12T15:14:26.347Z,-1.95
2024-01-12T15:17:29.531Z,-1.99
2024-01-12T15:20:32.966Z,-2.02
2024-01-12T15:23:35.883Z,-2.03
2024-01-12T15:26:38.727Z,-2.02
2024-01-12T15:29:41.614Z,-2.04
2024-01-12T15:32:44.666Z,-2.04
2024-01-12T15:35:47.712Z,-2.06
2024-01-12T15:38:50.613Z,-2.09
2024-01-12T15:41:54.528Z,-2.10
2024-01-12T15:44:57.550Z,-2.12
2024-01-12T15:48:01.159Z,-2.13
2024-01-12T15:51:04.107Z,-2.13
2024-01-12T15:54:07.001Z,-2.12
2024-01-12T15:57:10.023Z,-2.11
2024-01-12T16:00:13.839Z,-2.11
2024-01-12T16:03:16.948Z,-2.14
2024-01-12T16:06:19.971Z,-2.14
2024-01-12T16:09:22.888Z,-2.18
2024-01-12T16:12:25.859Z,-2.23
2024-01-12T16:15:28.712Z,-2.27
2024-01-12T16:18:31.591Z,-2.30
2024-01-12T16:21:36.569Z,-2.32
2024-01-12T16:24:40.013Z,-2.34
2024-01-12T16:27:42.836Z,-2.35
2024-01-12T16:30:46.433Z,-2.36
2024-01-12T16:33:49.532Z,-2.37
2024-01-12T16:36:52.499Z,-2.38
2024-01-12T16:39:55.272Z,-2.39
2024-01-12T16:42:58.103Z,-2.39
2024-01-12T16:46:00.836Z,-2.41
2024-01-12T16:49:03.890Z,-2.42
2024-01-12T16:52:06.902Z,-2.44
2024-01-12T16:55:09.939Z,-2.47
2024-01-12T16:58:13.129Z,-2.52
2024-01-12T17:01:16.523Z,-2.59
2024-01-12T17:04:19.373Z,-2.64
2024-01-12T17:07:22.535Z,-2.68
2024-01-12T17:10:25.638Z,-2.73
2024-01-12T17:13:28.508Z,-2.84
2024-01-12T17:16:36.035Z,-2.94
2024-01-12T17:19:39.969Z,-3.03
2024-01-12T17:22:42.786Z,-3.11
2024-01-12T17:25:45.631Z,-3.14
2024-01-12T17:28:48.811Z,-3.13
2024-01-12T17:31:51.959Z,-3.14
2024-01-12T17:34:54.940Z,-3.19
2024-01-12T17:37:57.827Z,-3.27
2024-01-12T17:41:00.667Z,-3.39
2024-01-12T17:44:03.480Z,-3.54
2024-01-12T17:47:06.432Z,-3.72
2024-01-12T17:50:09.573Z,-3.89
2024-01-12T17:53:12.423Z,-4.04
2024-01-12T17:56:15.224Z,-4.18
2024-01-12T17:59:18.754Z,-4.32
2024-01-12T18:02:21.563Z,-4.46
2024-01-12T18:05:24.535Z,-4.61
2024-01-12T18:08:27.471Z,-4.72
2024-01-12T18:11:30.262Z,-4.78
2024-01-12T18:14:40.090Z,-4.80
2024-01-12T18:17:42.990Z,-4.69
2024-01-12T18:20:46.278Z,-3.73
2024-01-12T18:23:49.219Z,-2.63
2024-01-12T18:26:52.021Z,-1.88
2024-01-12T18:29:55.966Z,-1.25
2024-01-12T18:32:59.001Z,-0.88
2024-01-12T18:36:02.239Z,-0.45
2024-01-12T18:39:05.428Z,-0.29
2024-01-12T18:42:08.424Z,-0.17
2024-01-12T18:45:11.382Z,0.13
2024-01-12T18:48:16.753Z,0.26
2024-01-12T18:51:23.426Z,0.23
2024-01-12T18:54:29.480Z,0.26
2024-01-12T18:57:32.312Z,0.22
2024-01-12T19:00:35.145Z,0.17
2024-01-12T19:03:37.980Z,0.19
2024-01-12T19:06:40.825Z,0.18
2024-01-12T19:09:43.767Z,0.16
2024-01-12T19:12:47.907Z,0.05
2024-01-12T19:15:50.811Z,-0.16
2024-01-12T19:18:53.862Z,-0.23
2024-01-12T19:21:56.794Z,-0.37
2024-01-12T19:24:59.599Z,-0.54
2024-01-12T19:28:02.439Z,-0.68
2024-01-12T19:31:05.587Z,-0.89
2024-01-12T19:34:08.901Z,-1.08
2024-01-12T19:37:11.992Z,-1.19
2024-01-12T19:40:15.061Z,-1.41
2024-01-12T19:43:17.905Z,-1.61
2024-01-12T19:46:20.740Z,-1.67
2024-01-12T19:49:23.747Z,-1.67
2024-01-12T19:52:27.318Z,-1.79
2024-01-12T19:55:30.158Z,-1.79
2024-01-12T19:58:33.094Z,-1.92
2024-01-12T20:01:36.027Z,-2.06
2024-01-12T20:04:44.729Z,-2.15
2024-01-12T20:07:51.044Z,-2.23
2024-01-12T20:10:54.127Z,-2.31
2024-01-12T20:13:57.145Z,-2.35
2024-01-12T20:17:00.032Z,-2.32
2024-01-12T20:20:03.447Z,-2.35
2024-01-12T20:23:06.476Z,-2.16
2024-01-12T20:26:09.630Z,-1.60
2024-01-12T20:29:21.758Z,-1.31
2024-01-12T20:32:25.400Z,-1.41
2024-01-12T20:35:28.422Z,-1.57
2024-01-12T20:38:31.380Z,-1.67
2024-01-12T20:41:34.322Z,-1.54
2024-01-12T20:44:38.304Z,-1.46
2024-01-12T20:47:41.382Z,-1.49
2024-01-12T20:50:44.325Z,-1.60
2024-01-12T20:53:49.673Z,-1.68
2024-01-12T20:56:53.230Z,-1.77
2024-01-12T20:59:56.058Z,-1.89
2024-01-12T21:02:59.104Z,-1.99
2024-01-12T21:06:02.334Z,-2.00
2024-01-12T21:09:05.263Z,-2.03
2024-01-12T21:12:08.325Z,-2.08
2024-01-12T21:15:11.419Z,-2.11
2024-01-12T21:18:14.619Z,-2.23
2024-01-12T21:21:17.568Z,-2.32
2024-01-12T21:24:20.472Z,-2.37
2024-01-12T21:27:23.295Z,-2.41
2024-01-12T21:30:26.477Z,-2.43
2024-01-12T21:33:29.723Z,-2.46
2024-01-12T21:36:32.745Z,-2.47
2024-01-12T21:39:44.762Z,-2.48
2024-01-12T21:42:47.582Z,-2.49
2024-01-12T21:45:50.760Z,-2.43
2024-01-12T21:48:53.718Z,-2.43
2024-01-12T21:51:56.641Z,-2.44
2024-01-12T21:54:59.485Z,-2.45
2024-01-12T21:58:06.427Z,-2.46
2024-01-12T22:01:09.524Z,-2.48
2024-01-12T22:04:12.470Z,-2.50
2024-01-12T22:07:15.502Z,-2.54
2024-01-12T22:10:18.528Z,-2.54
2024-01-12T22:13:21.313Z,-2.51
2024-01-12T22:16:24.393Z,-2.50
2024-01-12T22:19:27.335Z,-2.50
2024-01-12T22:22:30.220Z,-2.54
2024-01-12T22:25:32.985Z,-2.57
2024-01-12T22:28:35.784Z,-2.55
2024-01-12T22:31:38.585Z,-2.59
2024-01-12T22:38:34.157Z,-2.54
2024-01-12T22:41:37.409Z,-2.61
2024-01-12T22:44:40.293Z,-2.62
2024-01-12T22:47:43.231Z,-2.67
2024-01-12T22:50:46.191Z,-2.71
2024-01-12T22:53:49.107Z,-2.74
2024-01-12T22:56:51.950Z,-2.74
2024-01-12T22:59:54.836Z,-2.76
2024-01-12T23:02:58.199Z,-2.77
2024-01-12T23:06:01.849Z,-2.77
2024-01-12T23:09:10.277Z,-2.77
2024-01-12T23:12:13.418Z,-2.77
2024-01-12T23:15:17.870Z,-2.74
2024-01-12T23:18:20.964Z,-2.69
2024-01-12T23:21:59.177Z,-2.67
2024-01-12T23:25:02.096Z,-2.68
2024-01-12T23:28:04.987Z,-2.67
2024-01-12T23:31:07.927Z,-2.65
2024-01-12T23:34:10.928Z,-2.58
2024-01-12T23:37:13.952Z,-2.55
2024-01-12T23:40:16.810Z,-2.55
2024-01-12T23:43:19.649Z,-2.54
2024-01-12T23:46:22.570Z,-2.55
2024-01-12T23:49:25.458Z,-2.55
2024-01-12T23:52:28.361Z,-2.53
2024-01-12T23:55:31.140Z,-2.51
2024-01-12T23:58:38.417Z,-2.49
